Lansdowne House, Canada
Current Conditions -  °F | °C
As of 8:41 PM on Tuesday 27 Jan 2015 (Local Time) from CYLH Reporting Station
Light Snow Light Snow  
Wind Chill: 12°   Ceiling: 1000
Heat Index: 23°   Visibility: 2.5mi
Dew Point: 23°   Wind: 10mph
Humidity: 100%   Direction: 230°SW
Pressure: 29.97"   Gusts: NA
Location:  52.21°N, 87.89°W
Report Text: CYLH 280141Z AUTO 23009KT 2 1/2SM -SN BKN010 OVC014 M05/M05 A2997 RMK SLP169
Loading
Personal Weather Stations






























Interactive Weather Map New forecast layout! Learn more

10-Day Weather Forecast

Advertisements
Track Severe Weather on mobile